Flight Track Log - Related Links

Times and Time Zones

All times are in EDT time to prevent confusion due to time zone crossing. See the SKW4664 flight status page for this flight to view local times or setup timezone preferences in your user account.

Time Position Orientation Groundspeed Altitude Reporting Facility
EDT Latitude Longitude Course Direction KTS MPH feet Rate Location/Type
Thu 12:04:20 PM 43.5522 -96.6853 99° East 233 268 5,100  Level Minneapolis Center
Thu 12:05:22 PM 43.5956 -96.6097 52° Northeast 242 278 7,000 2,032 Climbing Minneapolis Center
Thu 12:06:00 PM 43.9087 -96.1314 53° Northeast  Level FlightAware Approximate
Thu 12:06:24 PM 43.6447 -96.5283 50° Northeast 259 298 9,300  Level Minneapolis Center
Thu 12:07:00 PM 43.9766 -96.0091 52° Northeast  Level FlightAware Approximate
Thu 12:07:26 PM 43.6972 -96.4394 51° Northeast 279 321 11,400  Level Minneapolis Center
Thu 12:08:00 PM 44.0446 -95.8867 52° Northeast  Level FlightAware Approximate
Thu 12:08:28 PM 43.7525 -96.3478 50° Northeast 300 345 13,600  Level Minneapolis Center
Thu 12:09:30 PM 43.8106 -96.2514 50° Northeast 325 374 14,900 1,489 Climbing Minneapolis Center
Thu 12:10:45 PM 43.8994 -96.1014 51° Northeast 362 417 17,000 1,489 Climbing Minneapolis Center
Thu 12:11:47 PM 43.9647 -95.9919 50° Northeast 370 426 18,300 1,355 Climbing Minneapolis Center
Thu 12:12:49 PM 44.0311 -95.8797 51° Northeast 380 437 19,800 1,258 Climbing Minneapolis Center
Thu 12:13:51 PM 44.0992 -95.7639 51° Northeast 389 448 20,900 1,355 Climbing Minneapolis Center
Thu 12:14:53 PM 44.1817 -95.6256 50° Northeast 391 450 22,600 1,016 Climbing Minneapolis Center
Thu 12:15:55 PM 44.2503 -95.5061 51° Northeast 395 455 23,000 192 Climbing Minneapolis Center
Thu 12:16:58 PM 44.3239 -95.3792 51° Northeast 415 478 23,000  Level Minneapolis Center
Thu 12:18:00 PM 44.3950 -95.2450 53° Northeast 428 493 23,000 -774 Level Minneapolis Center
Thu 12:19:02 PM 44.4339 -95.0897 71° East 424 488 21,400 -1,610 Descending Minneapolis Center
Thu 12:20:03 PM 44.4769 -94.9375 68° East 422 486 19,700 -1,790 Descending Minneapolis Center
Thu 12:21:06 PM 44.5283 -94.7619 68° East 411 473 17,700 -1,776 Descending Minneapolis Center
Thu 12:22:08 PM 44.5656 -94.6231 69° East 390 449 16,000 -1,742 Descending Minneapolis Center
Thu 12:23:10 PM 44.6072 -94.4722 69° East 382 440 14,100 -1,500 Descending Minneapolis Center
Thu 12:24:24 PM 44.6458 -94.3308 69° East 387 445 12,600 -1,314 Descending Minneapolis Center
Thu 12:25:27 PM 44.6892 -94.1722 69° East 362 417 11,100 -720 Descending Minneapolis Center
Thu 12:26:29 PM 44.7181 -94.0472 72° East 338 389 11,100  Level Minneapolis Center
Thu 12:27:31 PM 44.7442 -93.9294 73° East 319 367 11,100 -48 Level Minneapolis Center
Thu 12:28:33 PM 44.7711 -93.8086 73° East 323 372 11,000 -48 Descending Minneapolis Center
Thu 12:29:35 PM 44.8025 -93.6664 73° East 318 366 11,000 -387 Level Minneapolis Center
Thu 12:30:37 PM 44.8294 -93.5428 73° East 326 375 10,200 -1,113 Descending Minneapolis Center
Thu 12:31:39 PM 44.8553 -93.4267 73° East 312 359 8,700 -1,113 Descending Minneapolis Center
Thu 12:32:41 PM 44.8478 -93.3192 96° East 288 331 7,900 -1,161 Descending Minneapolis Center
Thu 12:33:43 PM 44.7789 -93.2925 165° South 262 302 6,300 -1,452 Descending Minneapolis Center
Thu 12:34:45 PM 44.7078 -93.2586 161° South 242 278 4,900 -1,355 Descending Minneapolis Center

Login

Don't have an account? Register now (free) for customized features, flight alerts, and more!